Time;durP1;ratioP1;P1;durP2;ratioP2;P2;SDS_P1;SDS_P2;PMS_P1;PMS_P2;Temp;Humidity;BMP_temperature;BMP_pressure;BME280_temperature;BME280_humidity;BME280_pressure;Samples;Min_cycle;Max_cycle;Signal;HPM_P1;HPM_P2
2022/05/24 00:00:34;;;;;;;1.63;1.52;;;;;;;15.78;76.12;97441.94;4179360;28;20232;-51
2022/05/24 00:02:36;;;;;;;2.03;1.83;;;;;;;15.88;75.88;97436.16;4160306;28;20221;-52
2022/05/24 00:04:38;;;;;;;2.13;1.75;;;;;;;15.85;75.88;97436.81;4178283;28;20746;-53
2022/05/24 00:06:39;;;;;;;1.60;1.48;;;;;;;15.80;76.29;97439.66;4146278;28;20201;-53
2022/05/24 00:08:41;;;;;;;2.22;2.10;;;;;;;15.66;76.53;97427.84;4161929;28;20231;-54
2022/05/24 00:10:43;;;;;;;1.67;1.58;;;;;;;15.58;76.52;97431.34;4159540;28;20252;-52
2022/05/24 00:12:45;;;;;;;2.80;2.15;;;;;;;15.48;76.70;97437.06;4142847;28;20683;-52
2022/05/24 00:17:08;;;;;;;1.13;1.02;;;;;;;15.64;76.37;97448.59;4177398;28;20212;-53
2022/05/24 00:19:09;;;;;;;1.40;1.30;;;;;;;15.60;76.30;97444.78;4158206;28;20852;-52
2022/05/24 00:21:12;;;;;;;1.77;1.52;;;;;;;15.59;76.35;97444.00;4169306;28;20268;-52
2022/05/24 00:23:14;;;;;;;2.05;1.90;;;;;;;15.51;76.56;97452.97;4155350;28;20728;-52
2022/05/24 00:25:16;;;;;;;3.85;1.88;;;;;;;15.47;76.57;97451.97;4156230;28;20204;-51
2022/05/24 00:27:18;;;;;;;2.22;2.03;;;;;;;15.44;76.95;97449.81;4142382;28;20204;-52
2022/05/24 00:29:19;;;;;;;1.70;1.60;;;;;;;15.54;76.53;97446.84;4161557;28;20201;-52
2022/05/24 00:31:22;;;;;;;1.65;1.55;;;;;;;15.54;76.40;97446.84;4161744;28;21395;-53
2022/05/24 00:33:25;;;;;;;1.40;1.30;;;;;;;15.60;76.49;97436.53;4157016;28;20671;-53
2022/05/24 00:35:27;;;;;;;1.42;1.33;;;;;;;15.59;76.39;97429.38;4159010;28;20247;-52
2022/05/24 00:37:29;;;;;;;3.92;1.30;;;;;;;15.69;76.13;97438.25;4173479;28;20731;-53
2022/05/24 00:39:30;;;;;;;1.70;1.60;;;;;;;15.59;76.49;97432.13;4140207;28;20240;-52
2022/05/24 00:41:38;;;;;;;1.20;1.10;;;;;;;15.68;76.22;97430.28;4157257;28;20220;-52
2022/05/24 00:43:46;;;;;;;2.05;1.90;;;;;;;15.76;75.74;97433.13;4174922;28;20590;-52
2022/05/24 00:45:50;;;;;;;4.25;1.67;;;;;;;15.68;76.04;97436.63;4158089;28;20912;-52
2022/05/24 00:47:56;;;;;;;1.48;1.38;;;;;;;15.62;76.23;97432.34;4157598;28;20204;-52
2022/05/24 00:50:03;;;;;;;2.45;2.20;;;;;;;15.45;76.80;97421.13;4157346;28;20258;-53
2022/05/24 00:52:14;;;;;;;1.45;1.35;;;;;;;15.50;76.89;97426.53;4159025;28;20220;-52
2022/05/24 00:54:23;;;;;;;1.45;1.35;;;;;;;15.65;76.41;97420.69;4163826;28;20207;-53
2022/05/24 00:56:52;;;;;;;1.65;1.55;;;;;;;15.67;76.35;97423.97;4159479;28;20216;-53
2022/05/24 00:59:05;;;;;;;1.95;1.85;;;;;;;15.69;76.29;97420.91;4155804;28;20258;-53
2022/05/24 01:01:29;;;;;;;1.88;1.77;;;;;;;15.74;76.06;97432.63;4157773;28;20208;-53
2022/05/24 01:03:31;;;;;;;1.67;1.20;;;;;;;15.77;76.06;97423.72;4160717;28;20219;-52
2022/05/24 01:05:32;;;;;;;1.20;1.10;;;;;;;15.79;75.70;97427.00;4164261;28;20678;-52
2022/05/24 01:07:36;;;;;;;1.23;1.13;;;;;;;15.83;75.68;97416.97;4166395;28;20722;-53
2022/05/24 01:09:43;;;;;;;0.80;0.80;;;;;;;15.85;75.50;97420.25;4165098;28;20205;-51
2022/05/24 01:11:46;;;;;;;1.40;1.27;;;;;;;15.82;75.76;97420.84;4154783;28;20224;-51
2022/05/24 01:13:50;;;;;;;0.95;0.88;;;;;;;15.81;75.81;97419.22;4183646;28;20220;-53
2022/05/24 01:15:52;;;;;;;1.38;1.27;;;;;;;15.83;75.46;97416.97;4166089;28;20208;-52
2022/05/24 01:17:54;;;;;;;1.10;1.00;;;;;;;15.84;75.18;97418.59;4138859;28;20228;-54
2022/05/24 01:19:59;;;;;;;1.27;1.17;;;;;;;15.80;75.63;97412.09;4171140;28;20232;-53
2022/05/24 01:22:17;;;;;;;1.08;0.98;;;;;;;15.69;76.08;97415.38;4181113;28;20223;-52
2022/05/24 01:24:41;;;;;;;1.35;1.17;;;;;;;15.59;76.43;97421.94;4184640;28;20233;-52
2022/05/24 01:26:51;;;;;;;1.77;1.45;;;;;;;15.56;76.59;97411.50;4185929;28;20536;-53
2022/05/24 01:28:57;;;;;;;2.30;1.38;;;;;;;15.43;77.02;97409.56;4147547;28;20209;-53
2022/05/24 01:31:01;;;;;;;2.08;1.48;;;;;;;15.40;76.97;97406.63;4164578;28;20216;-51
2022/05/24 01:37:44;;;;;;;2.92;2.42;;;;;;;15.32;77.37;97405.41;4171773;28;20208;-53
2022/05/24 01:39:47;;;;;;;1.92;1.73;;;;;;;15.30;77.54;97402.09;4181654;28;20238;-52
2022/05/24 01:41:51;;;;;;;2.22;1.60;;;;;;;15.26;77.84;97411.28;4169333;28;20227;-50
2022/05/24 01:43:54;;;;;;;2.33;1.85;;;;;;;15.19;77.94;97406.22;4171998;28;20212;-52
2022/05/24 01:46:02;;;;;;;3.92;1.90;;;;;;;14.98;78.91;97402.22;4151206;28;20274;-54
2022/05/24 01:48:09;;;;;;;1.40;1.30;;;;;;;15.00;78.99;97401.91;4149471;28;20205;-52
2022/05/24 01:50:14;;;;;;;1.67;1.58;;;;;;;15.01;78.92;97400.78;4144078;28;20592;-53
2022/05/24 01:52:21;;;;;;;2.08;1.88;;;;;;;14.92;79.30;97399.84;4183820;28;20231;-52
2022/05/24 01:54:23;;;;;;;1.63;1.52;;;;;;;15.02;78.90;97394.97;4163113;28;20196;-52
2022/05/24 01:56:30;;;;;;;1.40;1.30;;;;;;;15.20;78.54;97405.09;4182388;28;20200;-52
2022/05/24 01:58:33;;;;;;;2.05;1.85;;;;;;;15.11;78.71;97398.63;4183055;28;20200;-53
2022/05/24 02:00:35;;;;;;;2.10;1.90;;;;;;;15.14;78.78;97392.53;4166672;28;20235;-52
2022/05/24 02:02:36;;;;;;;1.85;1.75;;;;;;;15.11;79.05;97384.84;4151414;28;20241;-53
2022/05/24 02:04:39;;;;;;;2.63;2.42;;;;;;;15.13;79.02;97393.66;4164083;28;20295;-52
2022/05/24 02:06:41;;;;;;;2.05;1.95;;;;;;;15.05;79.56;97383.34;4179842;28;20238;-53
2022/05/24 02:08:42;;;;;;;1.85;1.75;;;;;;;15.04;79.56;97395.47;4182913;28;20211;-52
2022/05/24 02:10:50;;;;;;;4.38;2.10;;;;;;;15.05;79.71;97391.63;4163646;28;20200;-52
2022/05/24 02:12:54;;;;;;;2.40;2.20;;;;;;;15.06;79.56;97390.50;4164732;28;20677;-52
2022/05/24 02:15:05;;;;;;;2.28;2.00;;;;;;;15.03;79.82;97388.34;4182469;28;20224;-53
2022/05/24 02:17:12;;;;;;;3.13;2.28;;;;;;;15.01;79.79;97385.06;4153952;28;20304;-52
2022/05/24 02:19:14;;;;;;;1.63;1.52;;;;;;;15.01;79.85;97376.81;4165511;28;20220;-53
2022/05/24 02:21:15;;;;;;;2.13;1.60;;;;;;;15.03;79.82;97380.06;4178170;28;20238;-52
2022/05/24 02:23:18;;;;;;;2.13;1.95;;;;;;;15.01;80.38;97382.31;4161886;28;20220;-52
2022/05/24 02:25:27;;;;;;;2.33;2.17;;;;;;;15.06;80.13;97368.44;4157849;28;20212;-52
2022/05/24 02:27:38;;;;;;;2.53;1.90;;;;;;;15.10;80.25;97368.66;4159809;28;20201;-52
2022/05/24 02:29:40;;;;;;;2.22;2.03;;;;;;;15.09;80.52;97364.28;4159609;28;20239;-52
2022/05/24 02:31:42;;;;;;;4.03;2.13;;;;;;;15.21;79.72;97365.38;4177808;28;20223;-53
2022/05/24 02:33:45;;;;;;;1.83;1.73;;;;;;;15.24;79.79;97364.75;4159612;28;20550;-53
2022/05/24 02:35:47;;;;;;;2.45;1.73;;;;;;;15.24;79.54;97370.25;4175696;28;20296;-52
2022/05/24 02:37:49;;;;;;;1.70;1.58;;;;;;;15.20;79.65;97369.25;4160047;28;20607;-52
2022/05/24 02:42:11;;;;;;;1.30;1.20;;;;;;;15.12;79.77;97356.19;4175477;28;20263;-52
2022/05/24 02:44:15;;;;;;;1.50;1.20;;;;;;;15.11;79.19;97353.75;4159118;28;20230;-52
2022/05/24 02:46:17;;;;;;;1.60;1.50;;;;;;;15.08;79.36;97360.69;4167077;28;20269;-51
2022/05/24 02:48:19;;;;;;;0.98;0.95;;;;;;;15.07;79.32;97359.06;4164458;28;20236;-53
2022/05/24 02:50:21;;;;;;;1.70;1.60;;;;;;;15.08;79.25;97355.16;4160628;28;20221;-52
2022/05/24 02:52:23;;;;;;;1.20;1.10;;;;;;;15.14;79.24;97359.47;4160424;28;20221;-52
2022/05/24 02:54:24;;;;;;;1.55;1.45;;;;;;;15.04;79.29;97354.13;4157539;28;20633;-53
2022/05/24 02:56:27;;;;;;;1.35;1.13;;;;;;;15.03;79.14;97365.50;4178233;28;20657;-52
2022/05/24 02:58:29;;;;;;;1.60;1.42;;;;;;;14.99;79.23;97362.53;4154424;28;20209;-52
2022/05/24 03:00:31;;;;;;;1.60;1.50;;;;;;;15.03;79.21;97358.03;4159828;28;20247;-53
2022/05/24 03:02:33;;;;;;;1.13;1.05;;;;;;;15.13;78.96;97357.00;4162857;28;20278;-51
2022/05/24 03:04:35;;;;;;;1.30;1.20;;;;;;;15.10;78.87;97358.44;4160146;28;20209;-52
2022/05/24 03:11:17;;;;;;;1.48;1.38;;;;;;;14.94;79.17;97348.84;4176109;28;20230;-52
2022/05/24 03:15:40;;;;;;;1.05;0.98;;;;;;;15.00;78.91;97358.66;4175932;28;20674;-52
2022/05/24 03:17:42;;;;;;;1.00;0.88;;;;;;;14.95;78.93;97355.16;4151790;28;20200;-54
2022/05/24 03:19:44;;;;;;;1.20;1.10;;;;;;;14.98;78.90;97365.59;4176175;28;20211;-52
2022/05/24 03:21:46;;;;;;;0.88;0.88;;;;;;;15.00;78.90;97364.16;4159871;28;20236;-53
2022/05/24 03:23:48;;;;;;;1.42;1.33;;;;;;;14.98;78.43;97366.41;4144429;28;20216;-52
2022/05/24 03:25:49;;;;;;;0.85;0.85;;;;;;;14.97;78.54;97370.25;4175084;28;20596;-53
2022/05/24 03:27:51;;;;;;;1.77;1.15;;;;;;;14.96;78.93;97360.38;4159418;28;20201;-52
2022/05/24 03:29:53;;;;;;;1.95;1.30;;;;;;;14.97;79.05;97364.75;4158873;28;20233;-52
2022/05/24 03:31:54;;;;;;;0.70;0.70;;;;;;;14.90;79.21;97364.34;4174888;28;20219;-52
2022/05/24 03:33:56;;;;;;;1.30;1.20;;;;;;;14.85;79.20;97371.91;4161789;28;20204;-53
2022/05/24 03:35:58;;;;;;;0.90;0.90;;;;;;;14.85;79.50;97378.25;4161480;28;20553;-51
2022/05/24 03:38:00;;;;;;;2.83;1.15;;;;;;;14.87;79.54;97380.66;4162316;28;20208;-53
2022/05/24 03:40:01;;;;;;;0.82;0.82;;;;;;;14.82;79.25;97373.31;4162795;28;20220;-53
2022/05/24 03:42:04;;;;;;;1.02;1.02;;;;;;;14.73;79.03;97386.19;4163252;28;20267;-53
2022/05/24 03:44:06;;;;;;;0.95;0.95;;;;;;;14.70;79.20;97386.78;4162546;28;20208;-52
2022/05/24 03:46:09;;;;;;;0.90;0.90;;;;;;;14.73;78.14;97377.91;4176521;28;20230;-52
2022/05/24 03:48:12;;;;;;;0.77;0.77;;;;;;;14.73;77.90;97375.16;4177298;28;20230;-53
2022/05/24 03:50:14;;;;;;;0.80;0.80;;;;;;;14.77;77.76;97376.16;4153948;28;20220;-53
2022/05/24 03:52:16;;;;;;;0.80;0.80;;;;;;;14.68;78.01;97367.00;4161064;28;20745;-52
2022/05/24 03:54:18;;;;;;;0.80;0.80;;;;;;;14.77;77.49;97369.88;4161340;28;20259;-52
2022/05/24 03:56:19;;;;;;;2.80;0.80;;;;;;;14.73;77.45;97366.91;4144005;28;20373;-52
2022/05/24 03:58:21;;;;;;;0.57;0.57;;;;;;;14.74;77.28;97379.56;4174724;28;20242;-52
2022/05/24 04:00:24;;;;;;;0.60;0.60;;;;;;;14.74;77.17;97371.28;4159509;28;20228;-53
2022/05/24 04:02:26;;;;;;;0.50;0.50;;;;;;;14.73;76.97;97386.19;4176718;28;20281;-52
2022/05/24 04:04:27;;;;;;;0.65;0.65;;;;;;;14.75;77.22;97375.66;4152571;28;20206;-52
2022/05/24 04:06:29;;;;;;;0.90;0.90;;;;;;;14.77;76.90;97391.91;4178734;28;20196;-52
2022/05/24 04:08:31;;;;;;;0.65;0.60;;;;;;;14.78;76.64;97388.84;4160308;28;20223;-53
2022/05/24 04:10:35;;;;;;;1.25;0.70;;;;;;;14.73;77.07;97386.19;4160359;28;20664;-52
2022/05/24 04:12:37;;;;;;;0.60;0.60;;;;;;;14.78;76.83;97379.75;4159696;28;20274;-53
2022/05/24 04:14:39;;;;;;;0.60;0.60;;;;;;;14.62;77.42;97386.69;4161708;28;20199;-52
2022/05/24 04:16:41;;;;;;;0.45;0.45;;;;;;;14.58;77.46;97394.69;4161756;28;20698;-51
2022/05/24 04:18:42;;;;;;;0.65;0.65;;;;;;;14.49;78.04;97390.22;4146463;28;20217;-51
2022/05/24 04:20:44;;;;;;;0.80;0.80;;;;;;;14.41;78.27;97394.47;4162017;28;20259;-53
2022/05/24 04:22:46;;;;;;;0.60;0.60;;;;;;;14.43;78.44;97392.22;4163865;28;20713;-54
2022/05/24 04:24:47;;;;;;;0.60;0.60;;;;;;;14.48;78.45;97391.31;4160458;28;20235;-50
2022/05/24 04:26:50;;;;;;;0.93;0.90;;;;;;;14.51;78.14;97391.53;4162031;28;20216;-53
2022/05/24 04:28:52;;;;;;;0.73;0.73;;;;;;;14.48;78.67;97394.06;4160173;28;20659;-53
2022/05/24 04:30:53;;;;;;;0.90;0.90;;;;;;;14.47;78.36;97397.94;4159745;28;20802;-55
2022/05/24 04:32:55;;;;;;;0.90;0.90;;;;;;;14.60;78.19;97391.66;4158726;28;20254;-54
2022/05/24 04:34:57;;;;;;;0.82;0.82;;;;;;;14.53;78.18;97397.56;4160083;28;20837;-52
2022/05/24 04:36:59;;;;;;;1.85;1.75;;;;;;;14.52;78.29;97401.44;4163942;28;20247;-53
2022/05/24 04:39:04;;;;;;;0.90;0.80;;;;;;;14.60;77.95;97392.47;4149358;28;20209;-52
2022/05/24 04:43:28;;;;;;;0.73;0.73;;;;;;;14.70;77.72;97414.31;4175794;28;20658;-52
2022/05/24 04:45:30;;;;;;;4.90;0.70;;;;;;;14.61;78.39;97438.16;4179198;28;20338;-51
2022/05/24 04:47:35;;;;;;;0.80;0.80;;;;;;;14.63;79.09;97452.44;4162425;28;20205;-52
2022/05/24 04:49:57;;;;;;;0.80;0.80;;;;;;;14.58;79.66;97477.28;4179918;28;20266;-51
2022/05/24 04:51:59;;;;;;;1.05;0.80;;;;;;;14.50;80.85;97469.72;4164700;28;20219;-50
2022/05/24 04:54:00;;;;;;;0.60;0.60;;;;;;;14.33;79.70;97474.97;4162565;28;20248;-51
2022/05/24 04:56:03;;;;;;;0.50;0.50;;;;;;;14.26;79.54;97469.03;4162289;28;20339;-52
2022/05/24 04:58:05;;;;;;;0.88;0.80;;;;;;;14.18;79.17;97466.94;4164181;28;20350;-52
2022/05/24 05:00:13;;;;;;;0.50;0.50;;;;;;;14.30;79.68;97474.75;4154265;28;20636;-51
2022/05/24 05:02:18;;;;;;;0.60;0.60;;;;;;;14.14;79.43;97476.06;4165896;28;20720;-52
2022/05/24 05:04:20;;;;;;;0.90;0.90;;;;;;;14.12;80.45;97484.63;4173005;28;21016;-52
2022/05/24 05:06:22;;;;;;;0.50;0.50;;;;;;;14.26;80.69;97485.53;4155262;28;20220;-52
2022/05/24 05:08:24;;;;;;;0.70;0.70;;;;;;;14.21;80.43;97493.88;4157209;28;20628;-52
2022/05/24 05:10:26;;;;;;;0.65;0.63;;;;;;;14.16;80.25;97501.38;4160641;28;20593;-52
2022/05/24 05:12:28;;;;;;;0.60;0.60;;;;;;;14.26;80.82;97502.06;4155783;28;20875;-52
2022/05/24 05:14:30;;;;;;;1.45;0.93;;;;;;;14.24;80.76;97509.78;4157165;28;20209;-52
2022/05/24 05:16:31;;;;;;;0.50;0.50;;;;;;;14.25;81.43;97505.94;4161727;28;20197;-52
2022/05/24 05:18:33;;;;;;;0.50;0.50;;;;;;;14.32;81.58;97511.88;4165645;28;20213;-52
2022/05/24 05:20:39;;;;;;;0.50;0.50;;;;;;;14.20;81.31;97503.25;4159621;28;20200;-52
2022/05/24 05:22:40;;;;;;;0.60;0.60;;;;;;;14.28;81.46;97504.50;4141915;28;20237;-52
2022/05/24 05:24:42;;;;;;;0.50;0.50;;;;;;;14.28;81.27;97508.06;4156277;28;20278;-52
2022/05/24 05:26:44;;;;;;;1.40;0.80;;;;;;;14.41;81.40;97515.56;4161142;28;20271;-52
2022/05/24 05:28:46;;;;;;;1.77;0.75;;;;;;;14.48;81.41;97527.03;4146397;28;20209;-52
2022/05/24 05:33:08;;;;;;;0.45;0.45;;;;;;;14.28;81.87;97530.09;4178836;28;20647;-52
2022/05/24 05:35:10;;;;;;;0.47;0.47;;;;;;;14.38;81.38;97527.16;4162073;28;20209;-52
2022/05/24 05:37:12;;;;;;;0.40;0.40;;;;;;;14.47;81.39;97528.16;4163526;28;20208;-52
2022/05/24 05:39:13;;;;;;;0.50;0.50;;;;;;;14.50;81.08;97530.28;4163035;28;20213;-51
2022/05/24 05:41:21;;;;;;;0.70;0.70;;;;;;;14.53;81.00;97537.97;4146451;28;20264;-51
2022/05/24 05:43:23;;;;;;;0.63;0.63;;;;;;;14.53;80.46;97537.97;4167441;28;20203;-52
2022/05/24 05:45:25;;;;;;;0.45;0.40;;;;;;;14.61;80.76;97536.44;4180291;28;20211;-51
2022/05/24 05:47:27;;;;;;;0.60;0.60;;;;;;;14.71;80.47;97531.59;4173758;28;20294;-51
2022/05/24 05:49:29;;;;;;;0.52;0.40;;;;;;;14.95;79.84;97559.84;4160828;28;20275;-52
2022/05/24 05:51:30;;;;;;;0.55;0.55;;;;;;;14.81;79.35;97560.91;4162197;28;20287;-52
2022/05/24 05:53:32;;;;;;;0.70;0.70;;;;;;;14.76;78.90;97564.56;4160876;28;20623;-52
2022/05/24 05:55:36;;;;;;;0.50;0.50;;;;;;;14.60;79.20;97574.19;4159517;28;20296;-52
2022/05/24 05:57:38;;;;;;;0.50;0.50;;;;;;;14.53;79.08;97573.75;4170777;28;20200;-52
2022/05/24 05:59:40;;;;;;;0.50;0.50;;;;;;;14.59;79.40;97589.09;4182651;28;20212;-52
2022/05/24 06:01:42;;;;;;;0.65;0.60;;;;;;;14.54;79.21;97589.16;4155739;28;20299;-52
2022/05/24 06:03:44;;;;;;;0.60;0.60;;;;;;;14.48;79.82;97595.84;4179862;28;20258;-51
2022/05/24 06:05:52;;;;;;;0.50;0.47;;;;;;;14.56;79.33;97606.19;4163329;28;20208;-53
2022/05/24 06:07:58;;;;;;;0.50;0.50;;;;;;;14.48;79.88;97609.63;4161231;28;20334;-52
2022/05/24 06:10:00;;;;;;;0.70;0.70;;;;;;;14.58;78.98;97614.16;4173814;28;20237;-52
2022/05/24 06:12:03;;;;;;;1.35;0.45;;;;;;;14.36;79.71;97623.00;4160673;28;20239;-51
2022/05/24 06:14:04;;;;;;;0.70;0.70;;;;;;;14.30;79.82;97618.66;4179690;28;20196;-53
2022/05/24 06:16:07;;;;;;;0.50;0.50;;;;;;;14.26;80.43;97623.16;4161198;28;20291;-53
2022/05/24 06:18:09;;;;;;;0.75;0.68;;;;;;;14.26;80.26;97625.91;4161942;28;20205;-54
2022/05/24 06:20:11;;;;;;;0.57;0.57;;;;;;;14.33;79.70;97633.78;4179517;28;20209;-53
2022/05/24 06:22:13;;;;;;;0.50;0.50;;;;;;;14.33;79.29;97628.28;4168782;28;20293;-54
2022/05/24 06:24:15;;;;;;;0.80;0.70;;;;;;;14.22;79.55;97632.28;4155229;28;20212;-53
2022/05/24 06:26:18;;;;;;;0.43;0.43;;;;;;;14.26;79.96;97625.06;4160227;28;20666;-52
2022/05/24 06:28:20;;;;;;;1.67;0.70;;;;;;;14.33;79.96;97633.78;4177554;28;20208;-53
2022/05/24 06:30:23;;;;;;;0.60;0.60;;;;;;;14.42;79.26;97635.56;4180745;28;20214;-52
2022/05/24 06:32:30;;;;;;;0.60;0.60;;;;;;;14.42;78.85;97627.31;4167247;28;20274;-52
2022/05/24 06:34:31;;;;;;;1.00;0.93;;;;;;;14.43;79.56;97634.44;4149889;28;20305;-51
2022/05/24 06:36:33;;;;;;;0.47;0.47;;;;;;;14.47;79.24;97635.50;4166357;28;20204;-51
2022/05/24 06:38:37;;;;;;;0.77;0.50;;;;;;;14.59;79.43;97629.56;4165196;28;20239;-52
2022/05/24 06:40:39;;;;;;;0.75;0.70;;;;;;;14.67;79.25;97649.00;4165893;28;20209;-52
2022/05/24 06:42:41;;;;;;;0.50;0.50;;;;;;;14.60;78.59;97651.31;4165164;28;20315;-52
2022/05/24 06:44:43;;;;;;;2.75;0.55;;;;;;;14.55;78.73;97653.28;4183230;23;20205;-51
2022/05/24 06:46:46;;;;;;;2.45;0.73;;;;;;;14.58;78.54;97663.72;4178506;23;20671;-56
2022/05/24 06:48:48;;;;;;;0.50;0.50;;;;;;;14.56;78.31;97666.75;4171899;28;20228;-58
2022/05/24 06:50:49;;;;;;;0.40;0.40;;;;;;;14.48;78.15;97670.19;4171617;28;20577;-58
2022/05/24 06:52:55;;;;;;;0.65;0.65;;;;;;;14.46;78.57;97677.94;4170954;28;20204;-57
2022/05/24 06:54:57;;;;;;;0.60;0.60;;;;;;;14.57;78.66;97667.59;4169939;28;20291;-59
2022/05/24 06:56:59;;;;;;;0.60;0.60;;;;;;;14.47;77.99;97671.31;4169959;28;20200;-60
2022/05/24 07:03:41;;;;;;;0.60;0.60;;;;;;;15.03;76.90;97674.88;4172806;28;20200;-59
2022/05/24 07:05:47;;;;;;;0.40;0.40;;;;;;;15.01;75.48;97673.53;4172960;28;20600;-60
2022/05/24 07:07:48;;;;;;;0.63;0.63;;;;;;;14.97;76.44;97678.03;4173425;28;20854;-59
2022/05/24 07:09:51;;;;;;;0.88;0.70;;;;;;;15.17;75.84;97689.53;4171416;28;20215;-59
2022/05/24 07:11:53;;;;;;;0.57;0.57;;;;;;;15.30;75.88;97672.25;4186564;28;20230;-59
2022/05/24 07:13:55;;;;;;;3.40;0.50;;;;;;;15.50;75.05;97671.94;4171652;28;20208;-60
2022/05/24 07:15:57;;;;;;;0.82;0.60;;;;;;;15.44;75.48;97680.59;4174907;28;20239;-59
2022/05/24 07:17:58;;;;;;;0.88;0.60;;;;;;;15.32;75.21;97686.59;4171552;28;20583;-58
2022/05/24 07:20:00;;;;;;;0.60;0.60;;;;;;;15.82;74.71;97691.22;4172979;28;20224;-58
2022/05/24 07:22:02;;;;;;;0.40;0.40;;;;;;;15.94;74.91;97685.22;4171608;28;20267;-58
2022/05/24 07:24:04;;;;;;;0.30;0.30;;;;;;;15.99;72.36;97685.94;4173416;28;20246;-61
2022/05/24 07:26:25;;;;;;;0.40;0.40;;;;;;;15.89;69.31;97680.59;4173447;28;20197;-59
2022/05/24 07:28:47;;;;;;;0.50;0.50;;;;;;;15.68;69.73;97695.91;4168043;28;20571;-57
2022/05/24 07:30:51;;;;;;;0.68;0.68;;;;;;;15.32;70.46;97686.59;4170753;28;20251;-58
2022/05/24 07:32:53;;;;;;;0.47;0.47;;;;;;;15.37;72.00;97700.28;4167815;28;20193;-56
2022/05/24 07:34:56;;;;;;;0.40;0.40;;;;;;;15.30;71.96;97704.53;4169623;28;20205;-58
2022/05/24 07:37:00;;;;;;;0.40;0.40;;;;;;;15.24;73.49;97706.50;4172524;28;20208;-60
2022/05/24 07:39:03;;;;;;;0.40;0.40;;;;;;;15.08;73.75;97707.88;4169601;28;20242;-57
2022/05/24 07:45:49;;;;;;;0.52;0.52;;;;;;;14.68;75.16;97735.16;4172318;28;20204;-59
2022/05/24 07:47:50;;;;;;;0.40;0.40;;;;;;;14.61;75.71;97749.31;4168467;28;20213;-59
2022/05/24 07:49:52;;;;;;;0.50;0.50;;;;;;;14.41;76.20;97745.97;4169210;28;20269;-61
2022/05/24 07:51:54;;;;;;;0.43;0.43;;;;;;;14.33;77.06;97744.69;4166632;28;20243;-59
2022/05/24 07:53:55;;;;;;;0.47;0.47;;;;;;;14.28;76.15;97744.75;4170084;28;20250;-59
2022/05/24 07:55:58;;;;;;;0.52;0.52;;;;;;;14.08;75.25;97742.19;4168098;28;20208;-61
2022/05/24 07:57:59;;;;;;;0.40;0.40;;;;;;;14.02;75.21;97748.84;4170536;28;20306;-60
2022/05/24 08:00:12;;;;;;;0.47;0.47;;;;;;;14.06;75.32;97760.91;4165125;28;20322;-61
2022/05/24 08:02:17;;;;;;;0.40;0.40;;;;;;;13.92;76.00;97764.63;4173522;28;20314;-60
2022/05/24 08:04:19;;;;;;;0.45;0.45;;;;;;;14.12;76.21;97765.28;4167703;28;20248;-60
2022/05/24 08:06:21;;;;;;;0.50;0.50;;;;;;;14.20;76.19;97772.91;4169145;28;20208;-59
2022/05/24 08:08:22;;;;;;;0.30;0.30;;;;;;;14.25;75.20;97781.13;4170603;28;20273;-58
2022/05/24 08:10:24;;;;;;;0.55;0.50;;;;;;;14.34;74.82;97779.38;4169988;28;20696;-60
2022/05/24 08:12:34;;;;;;;0.93;0.52;;;;;;;14.44;75.55;97787.50;4169319;28;20209;-59
2022/05/24 08:14:36;;;;;;;1.02;0.70;;;;;;;14.29;73.89;97775.84;4172050;28;20209;-59
2022/05/24 08:16:37;;;;;;;0.40;0.40;;;;;;;14.43;74.55;97783.09;4168940;28;20227;-59
2022/05/24 08:18:39;;;;;;;0.50;0.50;;;;;;;14.30;73.81;97778.28;4168372;28;20212;-60
2022/05/24 08:20:41;;;;;;;1.05;0.40;;;;;;;14.37;73.92;97778.75;4166434;28;20234;-59
2022/05/24 08:22:43;;;;;;;1.10;0.85;;;;;;;14.34;73.06;97784.03;4164770;28;20224;-59
2022/05/24 08:24:45;;;;;;;1.17;0.60;;;;;;;14.23;73.21;97794.34;4161869;28;20216;-59
2022/05/24 08:26:46;;;;;;;1.58;0.75;;;;;;;14.39;73.50;97804.09;4166541;28;20204;-59
2022/05/24 08:28:48;;;;;;;0.55;0.55;;;;;;;14.53;72.85;97798.69;4165080;28;20201;-58
2022/05/24 08:30:50;;;;;;;0.90;0.50;;;;;;;14.39;73.09;97795.84;4168403;28;20690;-59
2022/05/24 08:32:52;;;;;;;0.73;0.73;;;;;;;14.47;73.59;97797.09;4179817;28;20553;-62
2022/05/24 08:34:54;;;;;;;0.85;0.85;;;;;;;14.50;73.06;97799.28;4167559;28;20211;-59
2022/05/24 08:36:56;;;;;;;1.23;0.47;;;;;;;14.26;73.28;97810.28;4165333;28;20204;-59
2022/05/24 08:38:57;;;;;;;1.98;0.50;;;;;;;14.26;73.55;97818.53;4168234;28;20245;-59
2022/05/24 08:41:02;;;;;;;0.75;0.70;;;;;;;14.31;73.12;97826.72;4167294;28;20230;-59
2022/05/24 08:43:09;;;;;;;0.50;0.50;;;;;;;14.34;73.39;97820.66;4164620;28;20668;-59
2022/05/24 08:50:05;;;;;;;1.85;0.73;;;;;;;14.46;72.26;97810.06;4167228;28;20255;-59
2022/05/24 08:52:08;;;;;;;0.73;0.73;;;;;;;14.63;71.82;97810.41;4165590;28;20626;-59
2022/05/24 08:54:21;;;;;;;0.60;0.60;;;;;;;15.25;71.65;97807.41;4167431;28;20295;-59
2022/05/24 08:56:29;;;;;;;0.60;0.60;;;;;;;15.71;71.66;97805.63;4178404;28;20236;-58
2022/05/24 08:58:34;;;;;;;0.95;0.60;;;;;;;16.32;71.26;97809.00;4168347;28;20305;-59
2022/05/24 09:00:39;;;;;;;0.75;0.60;;;;;;;16.57;69.04;97808.53;4166446;28;20278;-59
2022/05/24 09:02:45;;;;;;;1.02;0.60;;;;;;;16.65;68.02;97807.84;4167556;28;20643;-59
2022/05/24 09:04:49;;;;;;;0.50;0.50;;;;;;;17.10;68.61;97807.72;4167298;28;20235;-59
2022/05/24 09:06:51;;;;;;;0.40;0.40;;;;;;;17.23;67.21;97811.59;4168466;28;20568;-59
2022/05/24 09:09:13;;;;;;;0.40;0.40;;;;;;;17.28;66.29;97822.53;4166794;28;20679;-58
2022/05/24 09:11:23;;;;;;;0.52;0.52;;;;;;;17.56;67.39;97836.03;4168391;28;20322;-59
2022/05/24 09:13:52;;;;;;;0.30;0.30;;;;;;;17.55;63.72;97816.97;4167152;28;20196;-59
2022/05/24 09:16:05;;;;;;;0.60;0.55;;;;;;;17.88;64.75;97815.63;4170171;28;20609;-58
2022/05/24 09:18:09;;;;;;;0.32;0.32;;;;;;;17.78;63.17;97815.91;4168164;28;20199;-58
2022/05/24 09:20:14;;;;;;;0.40;0.40;;;;;;;17.79;63.06;97803.69;4165462;28;20715;-58
2022/05/24 09:22:16;;;;;;;0.50;0.50;;;;;;;17.63;62.26;97803.22;4183570;28;21287;-58
2022/05/24 09:24:34;;;;;;;0.60;0.38;;;;;;;17.96;62.85;97810.16;4168169;28;20226;-58
2022/05/24 09:27:15;;;;;;;0.40;0.40;;;;;;;18.04;62.84;97808.59;4164501;28;20202;-58
2022/05/24 09:29:17;;;;;;;0.40;0.40;;;;;;;17.57;62.01;97817.47;4171274;28;20238;-56
2022/05/24 09:31:41;;;;;;;0.80;0.50;;;;;;;17.46;63.75;97810.56;4172911;28;20208;-57
2022/05/24 09:33:44;;;;;;;0.45;0.45;;;;;;;17.52;63.00;97815.66;4172780;28;20706;-58
2022/05/24 09:35:45;;;;;;;0.60;0.50;;;;;;;17.89;63.37;97814.50;4172901;28;20204;-58
2022/05/24 09:38:02;;;;;;;1.08;0.60;;;;;;;17.77;61.48;97819.75;4171380;28;20258;-57
2022/05/24 09:40:17;;;;;;;0.40;0.40;;;;;;;17.95;61.15;97807.69;4171245;28;20231;-57
2022/05/24 09:42:28;;;;;;;1.65;0.57;;;;;;;17.47;60.93;97814.97;4169283;28;20319;-58
2022/05/24 09:44:47;;;;;;;0.65;0.30;;;;;;;17.35;61.46;97811.88;4171973;28;20287;-57
2022/05/24 09:46:50;;;;;;;0.35;0.35;;;;;;;16.99;60.47;97811.00;4171259;28;20622;-58
2022/05/24 09:49:00;;;;;;;0.80;0.40;;;;;;;17.36;61.46;97821.81;4168335;28;21045;-57
2022/05/24 09:51:04;;;;;;;0.20;0.20;;;;;;;17.28;61.28;97825.31;4170924;28;20229;-58
2022/05/24 09:53:15;;;;;;;0.45;0.40;;;;;;;17.19;60.32;97835.47;4166547;28;20203;-58
2022/05/24 09:55:23;;;;;;;0.57;0.30;;;;;;;17.33;58.73;97827.97;4170997;28;20690;-58
2022/05/24 09:57:27;;;;;;;0.25;0.25;;;;;;;17.06;58.38;97836.31;4171000;28;20635;-58
2022/05/24 09:59:29;;;;;;;0.35;0.35;;;;;;;16.79;59.29;97835.47;4172289;28;20200;-57
2022/05/24 10:01:35;;;;;;;0.30;0.30;;;;;;;16.66;60.17;97839.88;4172660;28;20299;-58
2022/05/24 10:03:42;;;;;;;0.40;0.40;;;;;;;17.24;60.89;97846.41;4171657;28;20274;-58
2022/05/24 10:05:56;;;;;;;0.40;0.40;;;;;;;17.73;60.95;97832.59;4173041;28;20192;-58
2022/05/24 10:07:58;;;;;;;0.38;0.38;;;;;;;18.20;58.96;97837.53;4185803;28;20211;-58
2022/05/24 10:10:02;;;;;;;1.35;0.50;;;;;;;18.78;58.54;97832.69;4171252;28;20243;-58
2022/05/24 10:12:09;;;;;;;0.30;0.30;;;;;;;19.23;57.67;97836.97;4171045;28;20239;-58
2022/05/24 10:14:43;;;;;;;0.40;0.40;;;;;;;19.19;56.13;97844.28;4174395;28;20213;-58
2022/05/24 10:17:03;;;;;;;0.30;0.30;;;;;;;19.02;52.81;97839.47;4170921;28;20848;-58
2022/05/24 10:19:50;;;;;;;0.38;0.30;;;;;;;19.42;53.58;97843.88;4171920;28;20219;-57
2022/05/24 10:22:04;;;;;;;0.75;0.57;;;;;;;19.39;53.74;97843.72;4168274;28;20694;-58